map of RSW home
RSW - Airport
Location
City:  Fort Myers, Florida, United States
Name:Southwest Florida International Airport
ICAO:KRSW
IATA:RSW
FAA LID:RSW

Details
Type:Airport (Part 139 Class I)
Use:Public/Civil, International (customs landing rights)
Latitude:2632'10"N (26.536167)
Longitude:8145'19"W (-81.755166)
Datum:WGS 1984
Elevation:29 ft (9 m)
Variation:5.84W (WMM2015 magnetic declination)
-0.10 annual change
Runways:1
Longest:12000 × 150 ft (3658 × 45.5 m), paved

Time
Time Zone:UTC-5 (DST-4)
Local Time:

Weather
METAR:KRSW 111253Z 04006KT 10SM CLR 07/03 A3030 RMK AO2 SLP259 T00720033
TAF:KRSW 111134Z 1112/1212 04007KT P6SM SKC
FM112000 34006KT P6SM FEW250
FM120100 VRB04KT P6SM SKC

Related Locations
Nearby:
Farthest:USL: 11507 mi / 18519 km
Useless Loop, WA, AU

Find:

   beyond  
but within

Other Information
Maps:
Delays:
NOTAMs:
Links:
Sources:

  
flag of United States
flag of Florida
  

Airport Diagram

Airport diagram for RSW

Airport diagram PDF

Sectional Chart

Flight Planning
at skyvector.com

Satellite Image

Google Maps Satellite view

 

Copyright © 2004-2017 Karl L. Swartz. All rights reserved.
The Great Circle Mapper name and logo are trademarks of the Great Circle Mapper.
All other trademarks mentioned herein belong to their respective owners.
Please see credits for attibutions and further copyright information.

  Follow gcmap on Facebook Follow gcmap on Twitter Follow gcmap on Google+ GCmap on LinkedIn

hCard Microformat

Geo Microformat